sensor_id;sensor_type;location;lat;lon;timestamp;P1;durP1;ratioP1;P2;durP2;ratioP2
20022;SDS011;10172;42.054;24.546;2022-09-13T00:01:51;2.13;;;1.63;;
20022;SDS011;10172;42.054;24.546;2022-09-13T00:04:17;2.75;;;1.77;;
20022;SDS011;10172;42.054;24.546;2022-09-13T00:06:42;2.20;;;2.00;;
20022;SDS011;10172;42.054;24.546;2022-09-13T00:09:08;2.17;;;1.70;;
20022;SDS011;10172;42.054;24.546;2022-09-13T00:11:33;1.63;;;1.33;;
20022;SDS011;10172;42.054;24.546;2022-09-13T00:13:59;2.40;;;1.83;;
20022;SDS011;10172;42.054;24.546;2022-09-13T00:16:25;2.63;;;1.95;;
20022;SDS011;10172;42.054;24.546;2022-09-13T00:18:52;2.05;;;1.80;;
20022;SDS011;10172;42.054;24.546;2022-09-13T00:21:19;2.05;;;1.50;;
20022;SDS011;10172;42.054;24.546;2022-09-13T00:23:47;2.47;;;1.52;;
20022;SDS011;10172;42.054;24.546;2022-09-13T00:26:19;1.95;;;1.65;;
20022;SDS011;10172;42.054;24.546;2022-09-13T00:28:49;1.42;;;1.33;;
20022;SDS011;10172;42.054;24.546;2022-09-13T00:31:16;1.80;;;1.50;;
20022;SDS011;10172;42.054;24.546;2022-09-13T00:33:41;1.77;;;1.50;;
20022;SDS011;10172;42.054;24.546;2022-09-13T00:36:07;2.30;;;1.60;;
20022;SDS011;10172;42.054;24.546;2022-09-13T00:38:35;2.33;;;1.80;;
20022;SDS011;10172;42.054;24.546;2022-09-13T00:41:02;2.67;;;1.90;;
20022;SDS011;10172;42.054;24.546;2022-09-13T00:48:54;2.20;;;1.90;;
20022;SDS011;10172;42.054;24.546;2022-09-13T00:51:24;4.00;;;2.08;;
20022;SDS011;10172;42.054;24.546;2022-09-13T00:53:51;1.70;;;1.60;;
20022;SDS011;10172;42.054;24.546;2022-09-13T00:56:21;1.90;;;1.65;;
20022;SDS011;10172;42.054;24.546;2022-09-13T00:59:11;4.47;;;1.80;;
20022;SDS011;10172;42.054;24.546;2022-09-13T01:01:51;2.22;;;1.70;;
20022;SDS011;10172;42.054;24.546;2022-09-13T01:04:19;2.35;;;1.90;;
20022;SDS011;10172;42.054;24.546;2022-09-13T01:06:46;3.00;;;1.50;;
20022;SDS011;10172;42.054;24.546;2022-09-13T01:09:14;2.78;;;1.95;;
20022;SDS011;10172;42.054;24.546;2022-09-13T01:11:46;2.08;;;1.80;;
20022;SDS011;10172;42.054;24.546;2022-09-13T01:14:17;2.65;;;1.75;;
20022;SDS011;10172;42.054;24.546;2022-09-13T01:16:44;3.28;;;1.75;;
20022;SDS011;10172;42.054;24.546;2022-09-13T01:19:10;2.28;;;1.70;;
20022;SDS011;10172;42.054;24.546;2022-09-13T01:29:40;8.60;;;2.13;;
20022;SDS011;10172;42.054;24.546;2022-09-13T01:46:05;2.53;;;1.90;;
20022;SDS011;10172;42.054;24.546;2022-09-13T01:48:36;2.85;;;2.17;;
20022;SDS011;10172;42.054;24.546;2022-09-13T01:51:32;2.78;;;1.98;;
20022;SDS011;10172;42.054;24.546;2022-09-13T01:54:06;2.47;;;1.60;;
20022;SDS011;10172;42.054;24.546;2022-09-13T01:56:41;2.53;;;1.77;;
20022;SDS011;10172;42.054;24.546;2022-09-13T01:59:16;2.47;;;1.90;;
20022;SDS011;10172;42.054;24.546;2022-09-13T02:01:54;2.55;;;2.17;;
20022;SDS011;10172;42.054;24.546;2022-09-13T02:04:26;1.88;;;1.60;;
20022;SDS011;10172;42.054;24.546;2022-09-13T02:07:09;2.60;;;1.90;;
20022;SDS011;10172;42.054;24.546;2022-09-13T02:09:41;2.38;;;2.00;;
20022;SDS011;10172;42.054;24.546;2022-09-13T02:12:14;2.00;;;1.70;;
20022;SDS011;10172;42.054;24.546;2022-09-13T02:14:48;2.92;;;1.85;;
20022;SDS011;10172;42.054;24.546;2022-09-13T02:17:21;2.85;;;1.65;;
20022;SDS011;10172;42.054;24.546;2022-09-13T02:20:08;3.90;;;1.95;;
20022;SDS011;10172;42.054;24.546;2022-09-13T02:22:42;1.95;;;1.75;;
20022;SDS011;10172;42.054;24.546;2022-09-13T02:25:13;1.85;;;1.58;;
20022;SDS011;10172;42.054;24.546;2022-09-13T02:27:44;1.98;;;1.63;;
20022;SDS011;10172;42.054;24.546;2022-09-13T02:30:12;3.25;;;1.85;;
20022;SDS011;10172;42.054;24.546;2022-09-13T02:32:49;2.30;;;1.77;;
20022;SDS011;10172;42.054;24.546;2022-09-13T02:38:03;2.55;;;1.70;;
20022;SDS011;10172;42.054;24.546;2022-09-13T02:40:34;1.63;;;1.52;;
20022;SDS011;10172;42.054;24.546;2022-09-13T02:43:16;2.25;;;1.48;;
20022;SDS011;10172;42.054;24.546;2022-09-13T02:45:49;2.17;;;1.63;;
20022;SDS011;10172;42.054;24.546;2022-09-13T02:48:34;2.50;;;1.50;;
20022;SDS011;10172;42.054;24.546;2022-09-13T02:54:37;1.58;;;1.30;;
20022;SDS011;10172;42.054;24.546;2022-09-13T02:57:06;1.40;;;1.30;;
20022;SDS011;10172;42.054;24.546;2022-09-13T02:59:39;3.00;;;1.30;;
20022;SDS011;10172;42.054;24.546;2022-09-13T03:02:05;1.92;;;1.27;;
20022;SDS011;10172;42.054;24.546;2022-09-13T03:04:35;1.20;;;1.08;;
20022;SDS011;10172;42.054;24.546;2022-09-13T03:07:01;1.95;;;1.50;;
20022;SDS011;10172;42.054;24.546;2022-09-13T03:09:28;2.95;;;1.50;;
20022;SDS011;10172;42.054;24.546;2022-09-13T03:20:15;2.65;;;1.13;;
20022;SDS011;10172;42.054;24.546;2022-09-13T03:25:32;1.40;;;1.30;;
20022;SDS011;10172;42.054;24.546;2022-09-13T03:30:46;1.52;;;1.38;;
20022;SDS011;10172;42.054;24.546;2022-09-13T03:33:29;1.48;;;1.27;;
20022;SDS011;10172;42.054;24.546;2022-09-13T03:38:36;3.28;;;1.52;;
20022;SDS011;10172;42.054;24.546;2022-09-13T03:41:08;1.88;;;1.48;;
20022;SDS011;10172;42.054;24.546;2022-09-13T03:46:03;1.80;;;1.45;;
20022;SDS011;10172;42.054;24.546;2022-09-13T03:48:33;2.00;;;1.60;;
20022;SDS011;10172;42.054;24.546;2022-09-13T03:51:02;2.53;;;1.52;;
20022;SDS011;10172;42.054;24.546;2022-09-13T03:53:29;2.88;;;1.98;;
20022;SDS011;10172;42.054;24.546;2022-09-13T03:55:58;2.38;;;1.55;;
20022;SDS011;10172;42.054;24.546;2022-09-13T03:58:24;1.83;;;1.63;;
20022;SDS011;10172;42.054;24.546;2022-09-13T04:00:50;3.22;;;1.83;;
20022;SDS011;10172;42.054;24.546;2022-09-13T04:03:18;2.95;;;1.80;;
20022;SDS011;10172;42.054;24.546;2022-09-13T04:05:44;2.47;;;1.83;;
20022;SDS011;10172;42.054;24.546;2022-09-13T04:08:10;2.00;;;1.70;;
20022;SDS011;10172;42.054;24.546;2022-09-13T04:10:35;3.42;;;2.10;;
20022;SDS011;10172;42.054;24.546;2022-09-13T04:13:01;3.00;;;1.92;;
20022;SDS011;10172;42.054;24.546;2022-09-13T04:15:27;2.53;;;1.85;;
20022;SDS011;10172;42.054;24.546;2022-09-13T04:17:55;3.17;;;2.10;;
20022;SDS011;10172;42.054;24.546;2022-09-13T04:20:20;3.28;;;2.25;;
20022;SDS011;10172;42.054;24.546;2022-09-13T04:22:50;3.15;;;2.17;;
20022;SDS011;10172;42.054;24.546;2022-09-13T04:25:21;2.55;;;2.00;;
20022;SDS011;10172;42.054;24.546;2022-09-13T04:27:48;2.53;;;2.05;;
20022;SDS011;10172;42.054;24.546;2022-09-13T04:30:17;6.63;;;2.15;;
20022;SDS011;10172;42.054;24.546;2022-09-13T04:32:43;2.08;;;1.73;;
20022;SDS011;10172;42.054;24.546;2022-09-13T04:35:09;3.63;;;2.40;;
20022;SDS011;10172;42.054;24.546;2022-09-13T04:37:35;4.97;;;2.65;;
20022;SDS011;10172;42.054;24.546;2022-09-13T04:40:02;2.03;;;1.80;;
20022;SDS011;10172;42.054;24.546;2022-09-13T04:42:27;2.40;;;2.10;;
20022;SDS011;10172;42.054;24.546;2022-09-13T04:44:53;2.33;;;2.05;;
20022;SDS011;10172;42.054;24.546;2022-09-13T04:47:19;4.82;;;2.00;;
20022;SDS011;10172;42.054;24.546;2022-09-13T04:49:45;4.10;;;2.17;;
20022;SDS011;10172;42.054;24.546;2022-09-13T04:52:12;3.17;;;2.10;;
20022;SDS011;10172;42.054;24.546;2022-09-13T04:54:38;2.45;;;1.67;;
20022;SDS011;10172;42.054;24.546;2022-09-13T04:57:03;2.15;;;1.65;;
20022;SDS011;10172;42.054;24.546;2022-09-13T04:59:28;1.90;;;1.67;;
20022;SDS011;10172;42.054;24.546;2022-09-13T05:01:54;2.72;;;2.10;;
20022;SDS011;10172;42.054;24.546;2022-09-13T05:04:20;3.17;;;1.90;;
20022;SDS011;10172;42.054;24.546;2022-09-13T05:06:45;2.83;;;2.33;;
20022;SDS011;10172;42.054;24.546;2022-09-13T05:09:12;3.38;;;2.33;;
20022;SDS011;10172;42.054;24.546;2022-09-13T05:11:39;2.38;;;1.85;;
20022;SDS011;10172;42.054;24.546;2022-09-13T05:14:05;2.40;;;2.00;;
20022;SDS011;10172;42.054;24.546;2022-09-13T05:16:31;1.75;;;1.63;;
20022;SDS011;10172;42.054;24.546;2022-09-13T05:18:57;3.33;;;2.22;;
20022;SDS011;10172;42.054;24.546;2022-09-13T05:21:24;3.72;;;2.42;;
20022;SDS011;10172;42.054;24.546;2022-09-13T05:23:52;2.88;;;1.77;;
20022;SDS011;10172;42.054;24.546;2022-09-13T05:26:19;3.88;;;2.22;;
20022;SDS011;10172;42.054;24.546;2022-09-13T05:28:45;4.13;;;2.63;;
20022;SDS011;10172;42.054;24.546;2022-09-13T05:31:21;4.72;;;2.05;;
20022;SDS011;10172;42.054;24.546;2022-09-13T05:33:52;3.22;;;2.03;;
20022;SDS011;10172;42.054;24.546;2022-09-13T05:36:20;2.53;;;1.77;;
20022;SDS011;10172;42.054;24.546;2022-09-13T05:38:45;2.33;;;2.05;;
20022;SDS011;10172;42.054;24.546;2022-09-13T05:41:10;2.78;;;2.08;;
20022;SDS011;10172;42.054;24.546;2022-09-13T05:43:36;3.25;;;2.20;;
20022;SDS011;10172;42.054;24.546;2022-09-13T05:46:05;3.65;;;2.45;;
20022;SDS011;10172;42.054;24.546;2022-09-13T05:48:34;2.88;;;2.20;;
20022;SDS011;10172;42.054;24.546;2022-09-13T05:53:55;3.05;;;1.92;;
20022;SDS011;10172;42.054;24.546;2022-09-13T05:56:25;3.45;;;2.00;;
20022;SDS011;10172;42.054;24.546;2022-09-13T05:58:52;4.45;;;2.30;;
20022;SDS011;10172;42.054;24.546;2022-09-13T06:01:20;2.40;;;1.73;;
20022;SDS011;10172;42.054;24.546;2022-09-13T06:03:51;3.50;;;1.67;;
20022;SDS011;10172;42.054;24.546;2022-09-13T06:06:18;4.07;;;1.85;;
20022;SDS011;10172;42.054;24.546;2022-09-13T06:08:44;2.38;;;1.85;;
20022;SDS011;10172;42.054;24.546;2022-09-13T06:11:10;1.95;;;1.70;;
20022;SDS011;10172;42.054;24.546;2022-09-13T06:13:37;1.70;;;1.58;;
20022;SDS011;10172;42.054;24.546;2022-09-13T06:16:04;1.75;;;1.48;;
20022;SDS011;10172;42.054;24.546;2022-09-13T06:18:31;2.58;;;1.35;;
20022;SDS011;10172;42.054;24.546;2022-09-13T06:21:08;1.63;;;1.30;;
20022;SDS011;10172;42.054;24.546;2022-09-13T06:23:36;1.60;;;1.30;;
20022;SDS011;10172;42.054;24.546;2022-09-13T06:28:27;2.05;;;1.42;;
20022;SDS011;10172;42.054;24.546;2022-09-13T06:31:00;3.33;;;1.80;;
20022;SDS011;10172;42.054;24.546;2022-09-13T06:33:30;1.92;;;1.40;;
20022;SDS011;10172;42.054;24.546;2022-09-13T06:36:11;2.53;;;1.60;;
20022;SDS011;10172;42.054;24.546;2022-09-13T06:38:45;1.42;;;1.10;;
20022;SDS011;10172;42.054;24.546;2022-09-13T06:41:12;1.80;;;1.60;;
20022;SDS011;10172;42.054;24.546;2022-09-13T06:43:39;1.30;;;1.20;;
20022;SDS011;10172;42.054;24.546;2022-09-13T06:46:09;1.30;;;1.20;;
20022;SDS011;10172;42.054;24.546;2022-09-13T06:48:37;1.98;;;1.20;;
20022;SDS011;10172;42.054;24.546;2022-09-13T06:51:07;1.20;;;1.00;;
20022;SDS011;10172;42.054;24.546;2022-09-13T06:53:34;2.65;;;1.67;;
20022;SDS011;10172;42.054;24.546;2022-09-13T06:56:07;2.67;;;1.40;;
20022;SDS011;10172;42.054;24.546;2022-09-13T06:58:36;1.05;;;0.95;;
20022;SDS011;10172;42.054;24.546;2022-09-13T07:03:39;1.58;;;1.08;;
20022;SDS011;10172;42.054;24.546;2022-09-13T07:06:11;2.17;;;1.30;;
20022;SDS011;10172;42.054;24.546;2022-09-13T07:08:41;1.88;;;1.20;;
20022;SDS011;10172;42.054;24.546;2022-09-13T07:11:08;0.93;;;0.77;;
20022;SDS011;10172;42.054;24.546;2022-09-13T07:13:36;2.28;;;1.40;;
20022;SDS011;10172;42.054;24.546;2022-09-13T07:16:06;1.85;;;0.85;;
20022;SDS011;10172;42.054;24.546;2022-09-13T07:18:34;2.75;;;1.20;;
20022;SDS011;10172;42.054;24.546;2022-09-13T07:21:04;2.45;;;1.38;;
20022;SDS011;10172;42.054;24.546;2022-09-13T07:23:31;1.48;;;1.15;;
20022;SDS011;10172;42.054;24.546;2022-09-13T07:25:58;2.83;;;0.88;;
20022;SDS011;10172;42.054;24.546;2022-09-13T07:28:30;1.13;;;0.98;;
20022;SDS011;10172;42.054;24.546;2022-09-13T07:31:18;1.40;;;1.10;;
20022;SDS011;10172;42.054;24.546;2022-09-13T07:33:45;1.23;;;1.13;;
20022;SDS011;10172;42.054;24.546;2022-09-13T07:36:12;2.25;;;1.20;;
20022;SDS011;10172;42.054;24.546;2022-09-13T07:38:41;2.25;;;1.17;;
20022;SDS011;10172;42.054;24.546;2022-09-13T07:41:11;1.15;;;0.80;;
20022;SDS011;10172;42.054;24.546;2022-09-13T07:43:38;2.17;;;1.20;;
20022;SDS011;10172;42.054;24.546;2022-09-13T07:46:04;1.85;;;1.20;;
20022;SDS011;10172;42.054;24.546;2022-09-13T07:48:32;2.08;;;1.73;;
20022;SDS011;10172;42.054;24.546;2022-09-13T07:50:59;1.95;;;1.52;;
20022;SDS011;10172;42.054;24.546;2022-09-13T07:53:33;2.25;;;1.75;;
20022;SDS011;10172;42.054;24.546;2022-09-13T07:56:03;1.75;;;1.20;;
20022;SDS011;10172;42.054;24.546;2022-09-13T07:58:31;1.25;;;1.15;;
20022;SDS011;10172;42.054;24.546;2022-09-13T08:01:00;1.58;;;1.10;;
20022;SDS011;10172;42.054;24.546;2022-09-13T08:03:28;1.77;;;1.20;;
20022;SDS011;10172;42.054;24.546;2022-09-13T08:05:54;1.48;;;1.27;;
20022;SDS011;10172;42.054;24.546;2022-09-13T08:08:19;2.83;;;1.30;;
20022;SDS011;10172;42.054;24.546;2022-09-13T08:10:45;1.83;;;1.00;;
20022;SDS011;10172;42.054;24.546;2022-09-13T08:13:10;2.25;;;1.40;;
20022;SDS011;10172;42.054;24.546;2022-09-13T08:15:36;1.58;;;1.45;;
20022;SDS011;10172;42.054;24.546;2022-09-13T08:18:01;1.60;;;1.20;;
20022;SDS011;10172;42.054;24.546;2022-09-13T08:20:27;1.58;;;1.00;;
20022;SDS011;10172;42.054;24.546;2022-09-13T08:22:53;1.67;;;1.05;;
20022;SDS011;10172;42.054;24.546;2022-09-13T08:25:18;1.02;;;0.80;;
20022;SDS011;10172;42.054;24.546;2022-09-13T08:27:44;1.05;;;0.80;;
20022;SDS011;10172;42.054;24.546;2022-09-13T08:30:09;1.20;;;0.75;;
20022;SDS011;10172;42.054;24.546;2022-09-13T08:32:35;1.00;;;0.80;;
20022;SDS011;10172;42.054;24.546;2022-09-13T08:35:01;0.82;;;0.63;;
20022;SDS011;10172;42.054;24.546;2022-09-13T08:37:26;1.30;;;0.80;;
20022;SDS011;10172;42.054;24.546;2022-09-13T08:39:52;1.58;;;0.80;;
20022;SDS011;10172;42.054;24.546;2022-09-13T08:45:14;2.00;;;0.90;;
20022;SDS011;10172;42.054;24.546;2022-09-13T08:47:45;0.90;;;0.63;;
20022;SDS011;10172;42.054;24.546;2022-09-13T08:50:17;1.38;;;1.00;;
20022;SDS011;10172;42.054;24.546;2022-09-13T08:56:01;1.25;;;0.85;;
20022;SDS011;10172;42.054;24.546;2022-09-13T09:01:07;0.70;;;0.63;;
20022;SDS011;10172;42.054;24.546;2022-09-13T09:03:45;0.70;;;0.68;;
20022;SDS011;10172;42.054;24.546;2022-09-13T09:06:20;0.60;;;0.60;;
20022;SDS011;10172;42.054;24.546;2022-09-13T09:14:42;1.13;;;0.70;;
20022;SDS011;10172;42.054;24.546;2022-09-13T09:17:16;1.77;;;0.60;;
20022;SDS011;10172;42.054;24.546;2022-09-13T09:19:51;1.52;;;0.60;;
20022;SDS011;10172;42.054;24.546;2022-09-13T09:22:33;0.68;;;0.50;;
20022;SDS011;10172;42.054;24.546;2022-09-13T09:24:59;0.68;;;0.60;;
20022;SDS011;10172;42.054;24.546;2022-09-13T09:27:25;2.00;;;0.70;;
20022;SDS011;10172;42.054;24.546;2022-09-13T09:29:51;0.50;;;0.43;;
20022;SDS011;10172;42.054;24.546;2022-09-13T09:37:49;1.58;;;0.80;;
20022;SDS011;10172;42.054;24.546;2022-09-13T09:40:42;0.70;;;0.60;;
20022;SDS011;10172;42.054;24.546;2022-09-13T09:43:14;1.05;;;0.45;;
20022;SDS011;10172;42.054;24.546;2022-09-13T09:45:50;0.70;;;0.50;;
20022;SDS011;10172;42.054;24.546;2022-09-13T09:48:19;0.60;;;0.50;;
20022;SDS011;10172;42.054;24.546;2022-09-13T09:50:51;1.23;;;0.70;;
20022;SDS011;10172;42.054;24.546;2022-09-13T09:53:32;0.73;;;0.70;;
20022;SDS011;10172;42.054;24.546;2022-09-13T09:56:27;0.88;;;0.65;;
20022;SDS011;10172;42.054;24.546;2022-09-13T09:58:54;0.93;;;0.70;;
20022;SDS011;10172;42.054;24.546;2022-09-13T10:01:21;0.50;;;0.40;;
20022;SDS011;10172;42.054;24.546;2022-09-13T10:04:37;0.60;;;0.60;;
20022;SDS011;10172;42.054;24.546;2022-09-13T10:06:38;0.47;;;0.47;;
20022;SDS011;10172;42.054;24.546;2022-09-13T10:11:52;1.20;;;0.73;;
20022;SDS011;10172;42.054;24.546;2022-09-13T10:14:28;1.95;;;0.90;;
20022;SDS011;10172;42.054;24.546;2022-09-13T10:19:29;0.70;;;0.50;;
20022;SDS011;10172;42.054;24.546;2022-09-13T10:21:59;1.52;;;0.60;;
20022;SDS011;10172;42.054;24.546;2022-09-13T10:24:30;1.48;;;0.60;;
20022;SDS011;10172;42.054;24.546;2022-09-13T10:26:56;0.80;;;0.50;;
20022;SDS011;10172;42.054;24.546;2022-09-13T10:29:27;1.10;;;0.47;;
20022;SDS011;10172;42.054;24.546;2022-09-13T10:31:53;0.35;;;0.35;;
20022;SDS011;10172;42.054;24.546;2022-09-13T10:34:23;0.73;;;0.50;;
20022;SDS011;10172;42.054;24.546;2022-09-13T10:36:53;0.77;;;0.60;;
20022;SDS011;10172;42.054;24.546;2022-09-13T10:39:23;1.73;;;0.55;;
20022;SDS011;10172;42.054;24.546;2022-09-13T10:44:27;0.95;;;0.70;;
20022;SDS011;10172;42.054;24.546;2022-09-13T10:46:53;0.52;;;0.52;;
20022;SDS011;10172;42.054;24.546;2022-09-13T10:49:41;0.73;;;0.60;;
20022;SDS011;10172;42.054;24.546;2022-09-13T10:52:30;2.70;;;0.68;;
20022;SDS011;10172;42.054;24.546;2022-09-13T11:03:49;1.05;;;0.60;;
20022;SDS011;10172;42.054;24.546;2022-09-13T11:15:09;0.60;;;0.57;;
20022;SDS011;10172;42.054;24.546;2022-09-13T11:17:36;0.65;;;0.45;;
20022;SDS011;10172;42.054;24.546;2022-09-13T11:23:13;1.00;;;0.65;;
20022;SDS011;10172;42.054;24.546;2022-09-13T11:49:27;1.30;;;0.73;;
20022;SDS011;10172;42.054;24.546;2022-09-13T11:52:06;0.60;;;0.60;;
20022;SDS011;10172;42.054;24.546;2022-09-13T11:57:15;2.45;;;0.80;;
20022;SDS011;10172;42.054;24.546;2022-09-13T12:02:19;0.80;;;0.60;;
20022;SDS011;10172;42.054;24.546;2022-09-13T12:04:53;1.25;;;0.70;;
20022;SDS011;10172;42.054;24.546;2022-09-13T12:08:11;1.70;;;0.60;;
20022;SDS011;10172;42.054;24.546;2022-09-13T12:10:18;0.77;;;0.60;;
20022;SDS011;10172;42.054;24.546;2022-09-13T12:12:46;1.73;;;0.68;;
20022;SDS011;10172;42.054;24.546;2022-09-13T12:15:16;2.13;;;0.90;;
20022;SDS011;10172;42.054;24.546;2022-09-13T12:17:47;2.25;;;0.63;;
20022;SDS011;10172;42.054;24.546;2022-09-13T12:20:35;2.63;;;0.80;;
20022;SDS011;10172;42.054;24.546;2022-09-13T12:23:06;1.30;;;0.60;;
20022;SDS011;10172;42.054;24.546;2022-09-13T12:25:41;0.75;;;0.60;;
20022;SDS011;10172;42.054;24.546;2022-09-13T12:28:17;0.50;;;0.50;;
20022;SDS011;10172;42.054;24.546;2022-09-13T12:30:49;3.40;;;0.75;;
20022;SDS011;10172;42.054;24.546;2022-09-13T12:33:19;1.13;;;0.75;;
20022;SDS011;10172;42.054;24.546;2022-09-13T12:35:48;0.80;;;0.57;;
20022;SDS011;10172;42.054;24.546;2022-09-13T12:57:46;0.65;;;0.60;;
20022;SDS011;10172;42.054;24.546;2022-09-13T13:00:32;1.38;;;0.60;;
20022;SDS011;10172;42.054;24.546;2022-09-13T13:05:42;0.60;;;0.45;;
20022;SDS011;10172;42.054;24.546;2022-09-13T13:10:58;1.02;;;0.70;;
20022;SDS011;10172;42.054;24.546;2022-09-13T13:13:31;1.75;;;0.70;;
20022;SDS011;10172;42.054;24.546;2022-09-13T13:16:21;0.40;;;0.40;;
20022;SDS011;10172;42.054;24.546;2022-09-13T13:19:26;2.83;;;0.63;;
20022;SDS011;10172;42.054;24.546;2022-09-13T13:22:45;0.60;;;0.50;;
20022;SDS011;10172;42.054;24.546;2022-09-13T13:25:09;0.50;;;0.50;;
20022;SDS011;10172;42.054;24.546;2022-09-13T13:27:50;0.70;;;0.50;;
20022;SDS011;10172;42.054;24.546;2022-09-13T13:33:25;0.47;;;0.40;;
20022;SDS011;10172;42.054;24.546;2022-09-13T13:35:53;0.47;;;0.40;;
20022;SDS011;10172;42.054;24.546;2022-09-13T13:40:47;0.65;;;0.40;;
20022;SDS011;10172;42.054;24.546;2022-09-13T13:43:28;0.80;;;0.43;;
20022;SDS011;10172;42.054;24.546;2022-09-13T13:45:56;0.70;;;0.40;;
20022;SDS011;10172;42.054;24.546;2022-09-13T13:48:34;0.50;;;0.50;;
20022;SDS011;10172;42.054;24.546;2022-09-13T13:53:38;1.00;;;0.50;;
20022;SDS011;10172;42.054;24.546;2022-09-13T13:56:20;0.65;;;0.60;;
20022;SDS011;10172;42.054;24.546;2022-09-13T14:01:54;2.85;;;0.68;;
20022;SDS011;10172;42.054;24.546;2022-09-13T14:07:06;1.45;;;0.70;;
20022;SDS011;10172;42.054;24.546;2022-09-13T14:09:45;0.63;;;0.60;;
20022;SDS011;10172;42.054;24.546;2022-09-13T14:15:06;1.08;;;0.57;;
20022;SDS011;10172;42.054;24.546;2022-09-13T14:20:26;0.63;;;0.57;;
20022;SDS011;10172;42.054;24.546;2022-09-13T14:23:09;0.90;;;0.60;;
20022;SDS011;10172;42.054;24.546;2022-09-13T14:25:35;0.70;;;0.65;;
20022;SDS011;10172;42.054;24.546;2022-09-13T14:28:01;0.80;;;0.60;;
20022;SDS011;10172;42.054;24.546;2022-09-13T14:30:29;1.00;;;0.75;;
20022;SDS011;10172;42.054;24.546;2022-09-13T14:32:58;0.68;;;0.40;;
20022;SDS011;10172;42.054;24.546;2022-09-13T14:38:15;1.73;;;0.75;;
20022;SDS011;10172;42.054;24.546;2022-09-13T14:40:47;0.43;;;0.32;;
20022;SDS011;10172;42.054;24.546;2022-09-13T14:43:23;1.30;;;0.80;;
20022;SDS011;10172;42.054;24.546;2022-09-13T14:46:35;0.80;;;0.50;;
20022;SDS011;10172;42.054;24.546;2022-09-13T14:48:59;0.75;;;0.50;;
20022;SDS011;10172;42.054;24.546;2022-09-13T14:51:31;0.50;;;0.50;;
20022;SDS011;10172;42.054;24.546;2022-09-13T14:54:05;0.68;;;0.60;;
20022;SDS011;10172;42.054;24.546;2022-09-13T14:56:40;2.08;;;0.68;;
20022;SDS011;10172;42.054;24.546;2022-09-13T14:59:23;0.40;;;0.35;;
20022;SDS011;10172;42.054;24.546;2022-09-13T15:01:52;0.45;;;0.30;;
20022;SDS011;10172;42.054;24.546;2022-09-13T15:04:18;1.10;;;0.50;;
20022;SDS011;10172;42.054;24.546;2022-09-13T15:06:46;0.70;;;0.57;;
20022;SDS011;10172;42.054;24.546;2022-09-13T15:09:13;1.27;;;0.55;;
20022;SDS011;10172;42.054;24.546;2022-09-13T15:14:26;0.65;;;0.55;;
20022;SDS011;10172;42.054;24.546;2022-09-13T15:17:17;2.13;;;0.57;;
20022;SDS011;10172;42.054;24.546;2022-09-13T15:19:46;1.75;;;0.52;;
20022;SDS011;10172;42.054;24.546;2022-09-13T15:24:54;0.60;;;0.40;;
20022;SDS011;10172;42.054;24.546;2022-09-13T15:27:26;0.47;;;0.35;;
20022;SDS011;10172;42.054;24.546;2022-09-13T15:30:04;3.80;;;0.75;;
20022;SDS011;10172;42.054;24.546;2022-09-13T15:32:34;0.68;;;0.50;;
20022;SDS011;10172;42.054;24.546;2022-09-13T15:35:17;0.65;;;0.43;;
20022;SDS011;10172;42.054;24.546;2022-09-13T15:37:56;0.85;;;0.70;;
20022;SDS011;10172;42.054;24.546;2022-09-13T15:40:27;1.15;;;0.60;;
20022;SDS011;10172;42.054;24.546;2022-09-13T15:42:53;1.27;;;0.70;;
20022;SDS011;10172;42.054;24.546;2022-09-13T15:45:20;0.70;;;0.70;;
20022;SDS011;10172;42.054;24.546;2022-09-13T15:47:46;1.27;;;0.80;;
20022;SDS011;10172;42.054;24.546;2022-09-13T15:52:52;3.25;;;0.73;;
20022;SDS011;10172;42.054;24.546;2022-09-13T15:55:18;1.88;;;1.08;;
20022;SDS011;10172;42.054;24.546;2022-09-13T15:57:44;1.48;;;0.90;;
20022;SDS011;10172;42.054;24.546;2022-09-13T16:00:24;0.40;;;0.40;;
20022;SDS011;10172;42.054;24.546;2022-09-13T16:02:51;1.77;;;0.65;;
20022;SDS011;10172;42.054;24.546;2022-09-13T16:05:17;1.10;;;0.70;;
20022;SDS011;10172;42.054;24.546;2022-09-13T16:07:43;0.88;;;0.70;;
20022;SDS011;10172;42.054;24.546;2022-09-13T16:10:10;0.50;;;0.50;;
20022;SDS011;10172;42.054;24.546;2022-09-13T16:12:38;0.82;;;0.60;;
20022;SDS011;10172;42.054;24.546;2022-09-13T16:15:04;1.25;;;0.60;;
20022;SDS011;10172;42.054;24.546;2022-09-13T16:17:30;0.52;;;0.50;;
20022;SDS011;10172;42.054;24.546;2022-09-13T16:19:55;0.93;;;0.50;;
20022;SDS011;10172;42.054;24.546;2022-09-13T16:22:21;1.98;;;0.50;;
20022;SDS011;10172;42.054;24.546;2022-09-13T16:24:47;0.85;;;0.57;;
20022;SDS011;10172;42.054;24.546;2022-09-13T16:27:14;0.70;;;0.60;;
20022;SDS011;10172;42.054;24.546;2022-09-13T16:29:41;1.83;;;0.60;;
20022;SDS011;10172;42.054;24.546;2022-09-13T16:32:07;1.05;;;0.50;;
20022;SDS011;10172;42.054;24.546;2022-09-13T16:34:33;2.00;;;0.70;;
20022;SDS011;10172;42.054;24.546;2022-09-13T16:36:58;1.45;;;0.70;;
20022;SDS011;10172;42.054;24.546;2022-09-13T16:39:24;1.10;;;0.73;;
20022;SDS011;10172;42.054;24.546;2022-09-13T16:41:49;0.70;;;0.50;;
20022;SDS011;10172;42.054;24.546;2022-09-13T16:44:15;0.73;;;0.52;;
20022;SDS011;10172;42.054;24.546;2022-09-13T16:46:41;1.13;;;0.60;;
20022;SDS011;10172;42.054;24.546;2022-09-13T16:49:06;1.08;;;0.70;;
20022;SDS011;10172;42.054;24.546;2022-09-13T16:51:32;0.30;;;0.30;;
20022;SDS011;10172;42.054;24.546;2022-09-13T16:53:58;2.05;;;0.95;;
20022;SDS011;10172;42.054;24.546;2022-09-13T16:56:24;0.85;;;0.55;;
20022;SDS011;10172;42.054;24.546;2022-09-13T16:58:51;0.60;;;0.50;;
20022;SDS011;10172;42.054;24.546;2022-09-13T17:01:18;1.15;;;0.70;;
20022;SDS011;10172;42.054;24.546;2022-09-13T17:03:46;0.45;;;0.45;;
20022;SDS011;10172;42.054;24.546;2022-09-13T17:06:12;0.50;;;0.40;;
20022;SDS011;10172;42.054;24.546;2022-09-13T17:08:39;0.38;;;0.38;;
20022;SDS011;10172;42.054;24.546;2022-09-13T17:11:08;0.73;;;0.55;;
20022;SDS011;10172;42.054;24.546;2022-09-13T17:13:36;0.90;;;0.70;;
20022;SDS011;10172;42.054;24.546;2022-09-13T17:16:03;0.68;;;0.43;;
20022;SDS011;10172;42.054;24.546;2022-09-13T17:18:31;1.88;;;0.75;;
20022;SDS011;10172;42.054;24.546;2022-09-13T17:20:57;1.60;;;0.60;;
20022;SDS011;10172;42.054;24.546;2022-09-13T17:23:24;1.00;;;0.68;;
20022;SDS011;10172;42.054;24.546;2022-09-13T17:25:50;0.82;;;0.70;;
20022;SDS011;10172;42.054;24.546;2022-09-13T17:28:16;1.15;;;0.75;;
20022;SDS011;10172;42.054;24.546;2022-09-13T17:30:43;0.98;;;0.60;;
20022;SDS011;10172;42.054;24.546;2022-09-13T17:33:10;0.82;;;0.60;;
20022;SDS011;10172;42.054;24.546;2022-09-13T17:35:37;0.70;;;0.70;;
20022;SDS011;10172;42.054;24.546;2022-09-13T17:38:03;1.38;;;0.80;;
20022;SDS011;10172;42.054;24.546;2022-09-13T17:40:30;0.82;;;0.52;;
20022;SDS011;10172;42.054;24.546;2022-09-13T17:42:56;0.95;;;0.68;;
20022;SDS011;10172;42.054;24.546;2022-09-13T17:45:22;1.42;;;0.77;;
20022;SDS011;10172;42.054;24.546;2022-09-13T17:47:50;0.93;;;0.75;;
20022;SDS011;10172;42.054;24.546;2022-09-13T17:50:16;0.57;;;0.55;;
20022;SDS011;10172;42.054;24.546;2022-09-13T17:52:42;1.30;;;0.60;;
20022;SDS011;10172;42.054;24.546;2022-09-13T17:55:07;0.70;;;0.63;;
20022;SDS011;10172;42.054;24.546;2022-09-13T17:57:33;0.85;;;0.80;;
20022;SDS011;10172;42.054;24.546;2022-09-13T17:59:59;1.05;;;0.60;;
20022;SDS011;10172;42.054;24.546;2022-09-13T18:02:25;0.90;;;0.80;;
20022;SDS011;10172;42.054;24.546;2022-09-13T18:04:51;1.48;;;0.85;;